sensor_id;sensor_type;location;lat;lon;timestamp;pressure;altitude;pressure_sealevel;temperature;humidity
31331;BME280;34067;39.548;-76.088;2023-01-29T00:00:15;102555.34;;;8.36;41.17
31331;BME280;34067;39.548;-76.088;2023-01-29T00:02:44;102554.88;;;8.43;40.69
31331;BME280;34067;39.548;-76.088;2023-01-29T00:05:12;102558.21;;;8.74;40.40
31331;BME280;34067;39.548;-76.088;2023-01-29T00:07:40;102557.84;;;8.87;40.32
31331;BME280;34067;39.548;-76.088;2023-01-29T00:10:09;102553.13;;;8.88;40.07
31331;BME280;34067;39.548;-76.088;2023-01-29T00:12:37;102552.50;;;8.77;40.08
31331;BME280;34067;39.548;-76.088;2023-01-29T00:15:06;102550.73;;;8.31;40.54
31331;BME280;34067;39.548;-76.088;2023-01-29T00:17:34;102551.45;;;8.24;40.66
31331;BME280;34067;39.548;-76.088;2023-01-29T00:20:02;102551.98;;;8.83;40.70
31331;BME280;34067;39.548;-76.088;2023-01-29T00:22:31;102551.85;;;8.22;42.91
31331;BME280;34067;39.548;-76.088;2023-01-29T00:24:59;102554.91;;;7.76;47.57
31331;BME280;34067;39.548;-76.088;2023-01-29T00:27:27;102555.54;;;7.39;48.22
31331;BME280;34067;39.548;-76.088;2023-01-29T00:29:55;102557.48;;;7.22;48.08
31331;BME280;34067;39.548;-76.088;2023-01-29T00:32:24;102559.04;;;6.83;45.63
31331;BME280;34067;39.548;-76.088;2023-01-29T00:34:52;102561.38;;;6.77;44.36
31331;BME280;34067;39.548;-76.088;2023-01-29T00:37:20;102566.38;;;7.64;44.44
31331;BME280;34067;39.548;-76.088;2023-01-29T00:39:48;102569.07;;;8.01;43.47
31331;BME280;34067;39.548;-76.088;2023-01-29T00:42:17;102573.29;;;6.74;44.02
31331;BME280;34067;39.548;-76.088;2023-01-29T00:44:45;102577.10;;;7.55;43.91
31331;BME280;34067;39.548;-76.088;2023-01-29T00:47:13;102571.77;;;8.26;42.75
31331;BME280;34067;39.548;-76.088;2023-01-29T00:49:41;102581.15;;;7.53;43.92
31331;BME280;34067;39.548;-76.088;2023-01-29T00:52:09;102582.39;;;7.12;43.93
31331;BME280;34067;39.548;-76.088;2023-01-29T00:54:37;102583.59;;;7.27;45.45
31331;BME280;34067;39.548;-76.088;2023-01-29T00:57:05;102590.43;;;7.41;45.72
31331;BME280;34067;39.548;-76.088;2023-01-29T00:59:32;102594.88;;;7.28;47.19
31331;BME280;34067;39.548;-76.088;2023-01-29T01:02:01;102598.17;;;7.08;47.27
31331;BME280;34067;39.548;-76.088;2023-01-29T01:04:29;102605.06;;;7.38;47.32
31331;BME280;34067;39.548;-76.088;2023-01-29T01:06:57;102607.00;;;7.43;48.04
31331;BME280;34067;39.548;-76.088;2023-01-29T01:09:25;102612.99;;;7.26;48.07
31331;BME280;34067;39.548;-76.088;2023-01-29T01:11:54;102615.54;;;7.30;47.78
31331;BME280;34067;39.548;-76.088;2023-01-29T01:14:22;102616.18;;;7.00;46.55
31331;BME280;34067;39.548;-76.088;2023-01-29T01:16:50;102617.49;;;7.09;46.31
31331;BME280;34067;39.548;-76.088;2023-01-29T01:19:18;102618.12;;;7.25;45.41
31331;BME280;34067;39.548;-76.088;2023-01-29T01:21:46;102619.33;;;7.17;46.16
31331;BME280;34067;39.548;-76.088;2023-01-29T01:24:14;102622.90;;;6.60;46.77
31331;BME280;34067;39.548;-76.088;2023-01-29T01:26:43;102626.78;;;6.82;46.53
31331;BME280;34067;39.548;-76.088;2023-01-29T01:29:11;102632.25;;;7.15;47.65
31331;BME280;34067;39.548;-76.088;2023-01-29T01:31:38;102631.29;;;6.62;47.73
31331;BME280;34067;39.548;-76.088;2023-01-29T01:34:06;102633.70;;;5.97;46.39
31331;BME280;34067;39.548;-76.088;2023-01-29T01:36:34;102633.55;;;6.45;45.55
31331;BME280;34067;39.548;-76.088;2023-01-29T01:39:02;102633.16;;;5.77;45.69
31331;BME280;34067;39.548;-76.088;2023-01-29T01:41:30;102632.78;;;6.41;45.22
31331;BME280;34067;39.548;-76.088;2023-01-29T01:44:00;102630.17;;;6.03;45.43
31331;BME280;34067;39.548;-76.088;2023-01-29T01:46:29;102632.00;;;5.99;45.73
31331;BME280;34067;39.548;-76.088;2023-01-29T01:49:00;102634.67;;;6.40;45.56
31331;BME280;34067;39.548;-76.088;2023-01-29T01:51:31;102634.51;;;6.12;48.82
31331;BME280;34067;39.548;-76.088;2023-01-29T01:54:04;102636.25;;;6.82;51.06
31331;BME280;34067;39.548;-76.088;2023-01-29T01:56:35;102634.25;;;6.69;50.54
31331;BME280;34067;39.548;-76.088;2023-01-29T01:59:09;102636.86;;;6.05;49.89
31331;BME280;34067;39.548;-76.088;2023-01-29T02:01:42;102634.67;;;6.32;49.20
31331;BME280;34067;39.548;-76.088;2023-01-29T02:04:13;102633.55;;;6.42;47.23
31331;BME280;34067;39.548;-76.088;2023-01-29T02:06:43;102632.69;;;5.56;45.63
31331;BME280;34067;39.548;-76.088;2023-01-29T02:09:17;102630.01;;;5.99;45.18
31331;BME280;34067;39.548;-76.088;2023-01-29T02:11:47;102632.35;;;5.80;46.70
31331;BME280;34067;39.548;-76.088;2023-01-29T02:14:15;102634.31;;;5.72;46.84
31331;BME280;34067;39.548;-76.088;2023-01-29T02:16:44;102633.96;;;6.03;47.14
31331;BME280;34067;39.548;-76.088;2023-01-29T02:19:18;102636.59;;;5.63;47.26
31331;BME280;34067;39.548;-76.088;2023-01-29T02:22:05;102640.08;;;5.58;48.41
31331;BME280;34067;39.548;-76.088;2023-01-29T02:27:20;102632.08;;;5.95;48.37
31331;BME280;34067;39.548;-76.088;2023-01-29T02:29:57;102630.37;;;5.26;48.31
31331;BME280;34067;39.548;-76.088;2023-01-29T02:32:31;102632.76;;;5.44;48.50
31331;BME280;34067;39.548;-76.088;2023-01-29T02:35:13;102631.01;;;5.47;48.49
31331;BME280;34067;39.548;-76.088;2023-01-29T02:37:51;102629.23;;;5.13;48.86
31331;BME280;34067;39.548;-76.088;2023-01-29T02:40:28;102633.55;;;5.30;48.85
31331;BME280;34067;39.548;-76.088;2023-01-29T02:43:05;102632.32;;;5.58;49.39
31331;BME280;34067;39.548;-76.088;2023-01-29T02:45:41;102628.94;;;5.35;49.25
31331;BME280;34067;39.548;-76.088;2023-01-29T02:48:15;102627.39;;;5.59;49.32
31331;BME280;34067;39.548;-76.088;2023-01-29T02:50:49;102626.32;;;5.49;49.67
31331;BME280;34067;39.548;-76.088;2023-01-29T02:53:26;102624.50;;;5.74;48.89
31331;BME280;34067;39.548;-76.088;2023-01-29T02:56:01;102628.59;;;5.16;48.99
31331;BME280;34067;39.548;-76.088;2023-01-29T02:58:33;102629.13;;;5.24;49.02
31331;BME280;34067;39.548;-76.088;2023-01-29T03:01:08;102629.51;;;5.01;49.08
31331;BME280;34067;39.548;-76.088;2023-01-29T03:03:41;102626.37;;;4.77;48.76
31331;BME280;34067;39.548;-76.088;2023-01-29T03:06:16;102625.54;;;5.72;48.03
31331;BME280;34067;39.548;-76.088;2023-01-29T03:08:48;102624.89;;;5.01;47.07
31331;BME280;34067;39.548;-76.088;2023-01-29T03:11:18;102625.89;;;4.73;46.94
31331;BME280;34067;39.548;-76.088;2023-01-29T03:13:50;102622.02;;;5.78;46.76
31331;BME280;34067;39.548;-76.088;2023-01-29T03:16:23;102619.53;;;5.12;47.26
31331;BME280;34067;39.548;-76.088;2023-01-29T03:18:56;102617.64;;;5.55;49.61
31331;BME280;34067;39.548;-76.088;2023-01-29T03:21:31;102616.01;;;4.96;52.10
31331;BME280;34067;39.548;-76.088;2023-01-29T03:24:00;102619.06;;;5.16;52.41
31331;BME280;34067;39.548;-76.088;2023-01-29T03:26:29;102621.99;;;5.19;52.02
31331;BME280;34067;39.548;-76.088;2023-01-29T03:28:59;102619.18;;;4.75;52.27
31331;BME280;34067;39.548;-76.088;2023-01-29T03:31:28;102619.66;;;5.02;52.59
31331;BME280;34067;39.548;-76.088;2023-01-29T03:34:01;102617.14;;;4.78;54.12
31331;BME280;34067;39.548;-76.088;2023-01-29T03:36:35;102615.31;;;4.53;51.83
31331;BME280;34067;39.548;-76.088;2023-01-29T03:39:06;102617.60;;;4.75;50.07
31331;BME280;34067;39.548;-76.088;2023-01-29T03:41:54;102612.18;;;4.69;50.70
31331;BME280;34067;39.548;-76.088;2023-01-29T03:44:32;102609.08;;;4.76;52.03
31331;BME280;34067;39.548;-76.088;2023-01-29T03:47:11;102608.44;;;4.77;52.37
31331;BME280;34067;39.548;-76.088;2023-01-29T03:49:53;102607.34;;;4.91;51.64
31331;BME280;34067;39.548;-76.088;2023-01-29T03:52:27;102604.77;;;4.73;50.98
31331;BME280;34067;39.548;-76.088;2023-01-29T03:55:01;102603.25;;;4.08;50.54
31331;BME280;34067;39.548;-76.088;2023-01-29T03:57:34;102600.39;;;4.67;49.57
31331;BME280;34067;39.548;-76.088;2023-01-29T04:00:11;102599.25;;;4.60;51.17
31331;BME280;34067;39.548;-76.088;2023-01-29T04:02:46;102596.34;;;4.58;51.13
31331;BME280;34067;39.548;-76.088;2023-01-29T04:05:19;102593.20;;;4.48;50.89
31331;BME280;34067;39.548;-76.088;2023-01-29T04:07:52;102587.93;;;4.57;50.78
31331;BME280;34067;39.548;-76.088;2023-01-29T04:10:25;102592.15;;;4.62;50.05
31331;BME280;34067;39.548;-76.088;2023-01-29T04:12:57;102589.44;;;4.45;49.85
31331;BME280;34067;39.548;-76.088;2023-01-29T04:15:28;102590.84;;;4.39;49.46
31331;BME280;34067;39.548;-76.088;2023-01-29T04:17:57;102592.43;;;4.16;49.61
31331;BME280;34067;39.548;-76.088;2023-01-29T04:20:26;102598.41;;;4.00;49.60
31331;BME280;34067;39.548;-76.088;2023-01-29T04:22:55;102593.79;;;4.35;49.13
31331;BME280;34067;39.548;-76.088;2023-01-29T04:25:27;102598.55;;;4.64;48.19
31331;BME280;34067;39.548;-76.088;2023-01-29T04:28:03;102591.33;;;4.56;48.15
31331;BME280;34067;39.548;-76.088;2023-01-29T04:30:41;102592.65;;;4.25;49.60
31331;BME280;34067;39.548;-76.088;2023-01-29T04:33:21;102596.26;;;4.06;52.05
31331;BME280;34067;39.548;-76.088;2023-01-29T04:36:10;102590.83;;;3.83;54.59
31331;BME280;34067;39.548;-76.088;2023-01-29T04:38:51;102586.55;;;4.08;56.00
31331;BME280;34067;39.548;-76.088;2023-01-29T04:41:27;102584.63;;;3.75;56.88
31331;BME280;34067;39.548;-76.088;2023-01-29T04:44:02;102583.59;;;3.68;56.15
31331;BME280;34067;39.548;-76.088;2023-01-29T04:46:44;102579.79;;;3.24;56.71
31331;BME280;34067;39.548;-76.088;2023-01-29T04:49:21;102578.62;;;3.76;55.95
31331;BME280;34067;39.548;-76.088;2023-01-29T04:51:59;102575.06;;;4.09;55.82
31331;BME280;34067;39.548;-76.088;2023-01-29T04:54:38;102571.69;;;3.34;55.47
31331;BME280;34067;39.548;-76.088;2023-01-29T04:57:13;102570.17;;;4.31;54.19
31331;BME280;34067;39.548;-76.088;2023-01-29T04:59:47;102566.97;;;3.98;55.45
31331;BME280;34067;39.548;-76.088;2023-01-29T05:02:18;102562.89;;;3.65;56.59
31331;BME280;34067;39.548;-76.088;2023-01-29T05:04:49;102562.60;;;3.84;56.86
31331;BME280;34067;39.548;-76.088;2023-01-29T05:07:19;102563.44;;;3.72;57.12
31331;BME280;34067;39.548;-76.088;2023-01-29T05:09:49;102559.06;;;3.54;58.23
31331;BME280;34067;39.548;-76.088;2023-01-29T05:12:17;102556.39;;;3.60;57.99
31331;BME280;34067;39.548;-76.088;2023-01-29T05:14:46;102557.75;;;3.84;57.59
31331;BME280;34067;39.548;-76.088;2023-01-29T05:17:18;102556.18;;;3.43;58.13
31331;BME280;34067;39.548;-76.088;2023-01-29T05:19:47;102554.64;;;3.06;59.03
31331;BME280;34067;39.548;-76.088;2023-01-29T05:22:17;102551.65;;;3.57;58.47
31331;BME280;34067;39.548;-76.088;2023-01-29T05:24:46;102551.31;;;3.61;58.81
31331;BME280;34067;39.548;-76.088;2023-01-29T05:27:18;102546.31;;;4.03;58.21
31331;BME280;34067;39.548;-76.088;2023-01-29T05:29:47;102545.22;;;3.53;58.04
31331;BME280;34067;39.548;-76.088;2023-01-29T05:32:15;102539.51;;;3.55;57.66
31331;BME280;34067;39.548;-76.088;2023-01-29T05:34:43;102537.97;;;2.89;57.92
31331;BME280;34067;39.548;-76.088;2023-01-29T05:37:11;102540.27;;;2.81;58.07
31331;BME280;34067;39.548;-76.088;2023-01-29T05:39:38;102534.87;;;3.35;58.87
31331;BME280;34067;39.548;-76.088;2023-01-29T05:42:06;102532.72;;;3.19;58.02
31331;BME280;34067;39.548;-76.088;2023-01-29T05:44:34;102536.07;;;3.89;57.95
31331;BME280;34067;39.548;-76.088;2023-01-29T05:47:02;102539.38;;;3.33;58.10
31331;BME280;34067;39.548;-76.088;2023-01-29T05:49:30;102538.59;;;3.02;59.29
31331;BME280;34067;39.548;-76.088;2023-01-29T05:51:58;102536.86;;;3.35;59.63
31331;BME280;34067;39.548;-76.088;2023-01-29T05:54:25;102535.99;;;3.39;59.74
31331;BME280;34067;39.548;-76.088;2023-01-29T05:56:53;102534.36;;;3.07;60.02
31331;BME280;34067;39.548;-76.088;2023-01-29T05:59:20;102529.43;;;2.80;60.95
31331;BME280;34067;39.548;-76.088;2023-01-29T06:03:10;102521.39;;;3.45;60.22
31331;BME280;34067;39.548;-76.088;2023-01-29T06:05:39;102521.15;;;3.49;59.74
31331;BME280;34067;39.548;-76.088;2023-01-29T06:08:07;102518.82;;;3.13;61.33
31331;BME280;34067;39.548;-76.088;2023-01-29T06:10:35;102515.33;;;3.48;61.43
31331;BME280;34067;39.548;-76.088;2023-01-29T06:13:03;102512.00;;;3.51;61.31
31331;BME280;34067;39.548;-76.088;2023-01-29T06:15:31;102508.34;;;3.25;62.19
31331;BME280;34067;39.548;-76.088;2023-01-29T06:18:00;102504.40;;;3.13;61.67
31331;BME280;34067;39.548;-76.088;2023-01-29T06:20:28;102493.87;;;3.26;61.82
31331;BME280;34067;39.548;-76.088;2023-01-29T06:22:56;102492.00;;;3.93;61.08
31331;BME280;34067;39.548;-76.088;2023-01-29T06:25:25;102490.85;;;3.27;61.63
31331;BME280;34067;39.548;-76.088;2023-01-29T06:27:53;102492.22;;;3.42;61.40
31331;BME280;34067;39.548;-76.088;2023-01-29T06:30:21;102492.33;;;3.48;61.21
31331;BME280;34067;39.548;-76.088;2023-01-29T06:33:25;102486.28;;;3.51;61.93
31331;BME280;34067;39.548;-76.088;2023-01-29T06:35:56;102481.66;;;3.07;61.44
31331;BME280;34067;39.548;-76.088;2023-01-29T06:38:24;102484.34;;;3.46;61.69
31331;BME280;34067;39.548;-76.088;2023-01-29T06:40:53;102479.37;;;3.46;61.67
31331;BME280;34067;39.548;-76.088;2023-01-29T06:43:22;102477.74;;;3.40;61.71
31331;BME280;34067;39.548;-76.088;2023-01-29T06:45:51;102473.34;;;2.93;61.94
31331;BME280;34067;39.548;-76.088;2023-01-29T06:48:20;102472.23;;;3.65;61.60
31331;BME280;34067;39.548;-76.088;2023-01-29T06:50:48;102472.45;;;3.67;61.51
31331;BME280;34067;39.548;-76.088;2023-01-29T06:53:17;102470.91;;;3.81;60.99
31331;BME280;34067;39.548;-76.088;2023-01-29T06:55:51;102473.78;;;3.04;61.42
31331;BME280;34067;39.548;-76.088;2023-01-29T06:58:20;102473.57;;;3.34;61.63
31331;BME280;34067;39.548;-76.088;2023-01-29T07:00:48;102477.12;;;2.77;62.10
31331;BME280;34067;39.548;-76.088;2023-01-29T07:03:16;102478.31;;;3.13;62.81
31331;BME280;34067;39.548;-76.088;2023-01-29T07:05:50;102477.74;;;2.93;62.90
31331;BME280;34067;39.548;-76.088;2023-01-29T07:08:18;102486.49;;;3.30;62.14
31331;BME280;34067;39.548;-76.088;2023-01-29T07:10:46;102487.07;;;2.96;62.74
31331;BME280;34067;39.548;-76.088;2023-01-29T07:13:15;102492.26;;;2.66;63.80
31331;BME280;34067;39.548;-76.088;2023-01-29T07:15:43;102499.48;;;3.03;63.32
31331;BME280;34067;39.548;-76.088;2023-01-29T07:18:11;102499.32;;;3.51;62.06
31331;BME280;34067;39.548;-76.088;2023-01-29T07:20:40;102496.69;;;3.21;61.80
31331;BME280;34067;39.548;-76.088;2023-01-29T07:23:10;102494.49;;;3.37;62.23
31331;BME280;34067;39.548;-76.088;2023-01-29T07:25:38;102493.29;;;3.24;62.55
31331;BME280;34067;39.548;-76.088;2023-01-29T07:28:06;102492.11;;;2.32;62.13
31331;BME280;34067;39.548;-76.088;2023-01-29T07:30:35;102495.58;;;3.20;61.68
31331;BME280;34067;39.548;-76.088;2023-01-29T07:33:04;102497.68;;;2.27;63.11
31331;BME280;34067;39.548;-76.088;2023-01-29T07:35:37;102502.66;;;2.98;62.62
31331;BME280;34067;39.548;-76.088;2023-01-29T07:38:05;102498.74;;;2.69;62.72
31331;BME280;34067;39.548;-76.088;2023-01-29T07:40:33;102494.92;;;2.85;62.46
31331;BME280;34067;39.548;-76.088;2023-01-29T07:43:03;102496.39;;;3.04;61.63
31331;BME280;34067;39.548;-76.088;2023-01-29T07:45:34;102497.34;;;2.87;62.54
31331;BME280;34067;39.548;-76.088;2023-01-29T07:48:02;102498.19;;;2.76;63.09
31331;BME280;34067;39.548;-76.088;2023-01-29T07:50:32;102494.23;;;2.90;61.56
31331;BME280;34067;39.548;-76.088;2023-01-29T07:53:00;102494.82;;;2.48;60.65
31331;BME280;34067;39.548;-76.088;2023-01-29T07:55:29;102496.32;;;3.15;60.11
31331;BME280;34067;39.548;-76.088;2023-01-29T07:57:58;102494.99;;;3.29;61.45
31331;BME280;34067;39.548;-76.088;2023-01-29T08:00:27;102494.24;;;3.04;62.80
31331;BME280;34067;39.548;-76.088;2023-01-29T08:03:01;102495.35;;;2.60;62.93
31331;BME280;34067;39.548;-76.088;2023-01-29T08:05:29;102494.45;;;3.08;63.15
31331;BME280;34067;39.548;-76.088;2023-01-29T08:07:57;102487.50;;;3.20;62.53
31331;BME280;34067;39.548;-76.088;2023-01-29T08:10:26;102479.56;;;3.53;62.99
31331;BME280;34067;39.548;-76.088;2023-01-29T08:12:55;102479.80;;;2.96;63.48
31331;BME280;34067;39.548;-76.088;2023-01-29T08:15:24;102472.63;;;2.37;64.69
31331;BME280;34067;39.548;-76.088;2023-01-29T08:17:52;102475.07;;;1.86;65.91
31331;BME280;34067;39.548;-76.088;2023-01-29T08:20:22;102476.28;;;2.65;65.09
31331;BME280;34067;39.548;-76.088;2023-01-29T08:22:58;102473.35;;;2.77;64.73
31331;BME280;34067;39.548;-76.088;2023-01-29T08:25:26;102472.09;;;3.07;64.07
31331;BME280;34067;39.548;-76.088;2023-01-29T08:27:56;102473.28;;;2.86;63.83
31331;BME280;34067;39.548;-76.088;2023-01-29T08:30:25;102477.26;;;3.00;63.02
31331;BME280;34067;39.548;-76.088;2023-01-29T08:32:53;102476.33;;;2.91;64.29
31331;BME280;34067;39.548;-76.088;2023-01-29T08:35:21;102479.98;;;2.56;65.06
31331;BME280;34067;39.548;-76.088;2023-01-29T08:37:53;102473.59;;;2.84;64.58
31331;BME280;34067;39.548;-76.088;2023-01-29T08:40:21;102473.60;;;2.83;64.21
31331;BME280;34067;39.548;-76.088;2023-01-29T08:42:49;102471.86;;;3.22;63.65
31331;BME280;34067;39.548;-76.088;2023-01-29T08:45:17;102470.79;;;3.10;63.43
31331;BME280;34067;39.548;-76.088;2023-01-29T08:47:46;102465.49;;;3.15;63.53
31331;BME280;34067;39.548;-76.088;2023-01-29T08:50:14;102467.16;;;3.08;63.89
31331;BME280;34067;39.548;-76.088;2023-01-29T08:52:43;102467.69;;;2.39;64.74
31331;BME280;34067;39.548;-76.088;2023-01-29T08:55:11;102467.03;;;2.66;65.98
31331;BME280;34067;39.548;-76.088;2023-01-29T08:57:39;102468.41;;;2.87;65.98
31331;BME280;34067;39.548;-76.088;2023-01-29T09:00:09;102472.36;;;2.75;66.28
31331;BME280;34067;39.548;-76.088;2023-01-29T09:02:37;102473.36;;;2.59;65.53
31331;BME280;34067;39.548;-76.088;2023-01-29T09:05:06;102472.21;;;2.93;64.49
31331;BME280;34067;39.548;-76.088;2023-01-29T09:07:35;102469.44;;;3.06;63.87
31331;BME280;34067;39.548;-76.088;2023-01-29T09:10:03;102469.16;;;2.89;64.16
31331;BME280;34067;39.548;-76.088;2023-01-29T09:12:31;102467.09;;;2.50;63.80
31331;BME280;34067;39.548;-76.088;2023-01-29T09:14:59;102462.42;;;2.92;63.78
31331;BME280;34067;39.548;-76.088;2023-01-29T09:17:27;102461.37;;;2.87;64.09
31331;BME280;34067;39.548;-76.088;2023-01-29T09:19:55;102457.85;;;3.17;64.35
31331;BME280;34067;39.548;-76.088;2023-01-29T09:22:23;102456.04;;;3.24;64.23
31331;BME280;34067;39.548;-76.088;2023-01-29T09:24:51;102460.91;;;2.74;64.17
31331;BME280;34067;39.548;-76.088;2023-01-29T09:27:18;102465.19;;;3.32;63.93
31331;BME280;34067;39.548;-76.088;2023-01-29T09:29:46;102464.54;;;3.34;63.92
31331;BME280;34067;39.548;-76.088;2023-01-29T09:32:14;102457.27;;;2.78;64.26
31331;BME280;34067;39.548;-76.088;2023-01-29T09:34:43;102451.29;;;2.25;65.18
31331;BME280;34067;39.548;-76.088;2023-01-29T09:37:11;102448.73;;;2.04;65.74
31331;BME280;34067;39.548;-76.088;2023-01-29T09:39:38;102446.07;;;2.22;66.04
31331;BME280;34067;39.548;-76.088;2023-01-29T09:42:09;102448.06;;;2.32;66.48
31331;BME280;34067;39.548;-76.088;2023-01-29T09:44:48;102446.59;;;2.53;66.67
31331;BME280;34067;39.548;-76.088;2023-01-29T09:47:21;102447.85;;;2.64;66.28
31331;BME280;34067;39.548;-76.088;2023-01-29T09:49:54;102452.04;;;1.95;66.52
31331;BME280;34067;39.548;-76.088;2023-01-29T09:52:26;102451.32;;;2.20;67.42
31331;BME280;34067;39.548;-76.088;2023-01-29T09:55:01;102457.78;;;2.26;66.12
31331;BME280;34067;39.548;-76.088;2023-01-29T09:57:38;102457.33;;;2.56;65.75
31331;BME280;34067;39.548;-76.088;2023-01-29T10:00:14;102451.53;;;2.64;64.38
31331;BME280;34067;39.548;-76.088;2023-01-29T10:02:58;102443.27;;;2.01;64.41
31331;BME280;34067;39.548;-76.088;2023-01-29T10:05:42;102440.83;;;2.10;63.87
31331;BME280;34067;39.548;-76.088;2023-01-29T10:08:49;102443.62;;;1.74;63.67
31331;BME280;34067;39.548;-76.088;2023-01-29T10:11:36;102452.22;;;2.23;63.88
31331;BME280;34067;39.548;-76.088;2023-01-29T10:14:13;102448.23;;;2.60;63.68
31331;BME280;34067;39.548;-76.088;2023-01-29T10:16:54;102442.63;;;2.31;63.55
31331;BME280;34067;39.548;-76.088;2023-01-29T10:19:50;102438.40;;;2.69;63.02
31331;BME280;34067;39.548;-76.088;2023-01-29T10:22:34;102436.53;;;2.18;63.41
31331;BME280;34067;39.548;-76.088;2023-01-29T10:25:12;102438.89;;;1.93;62.79
31331;BME280;34067;39.548;-76.088;2023-01-29T10:27:46;102440.05;;;1.92;64.09
31331;BME280;34067;39.548;-76.088;2023-01-29T10:30:22;102440.92;;;2.44;63.05
31331;BME280;34067;39.548;-76.088;2023-01-29T10:32:56;102443.79;;;2.18;63.04
31331;BME280;34067;39.548;-76.088;2023-01-29T10:35:30;102438.51;;;2.19;63.97
31331;BME280;34067;39.548;-76.088;2023-01-29T10:38:14;102432.92;;;2.10;64.05
31331;BME280;34067;39.548;-76.088;2023-01-29T10:40:51;102424.44;;;1.68;64.58
31331;BME280;34067;39.548;-76.088;2023-01-29T10:43:29;102414.52;;;1.95;65.45
31331;BME280;34067;39.548;-76.088;2023-01-29T10:46:11;102418.85;;;2.27;64.16
31331;BME280;34067;39.548;-76.088;2023-01-29T10:48:51;102411.73;;;2.11;63.15
31331;BME280;34067;39.548;-76.088;2023-01-29T10:51:39;102405.75;;;2.24;64.80
31331;BME280;34067;39.548;-76.088;2023-01-29T10:54:28;102398.05;;;2.44;64.44
31331;BME280;34067;39.548;-76.088;2023-01-29T10:57:09;102401.77;;;2.58;64.30
31331;BME280;34067;39.548;-76.088;2023-01-29T10:59:53;102405.51;;;2.64;64.40
31331;BME280;34067;39.548;-76.088;2023-01-29T11:02:26;102415.05;;;2.37;64.85
31331;BME280;34067;39.548;-76.088;2023-01-29T11:04:54;102418.16;;;2.01;64.71
31331;BME280;34067;39.548;-76.088;2023-01-29T11:07:22;102413.04;;;2.41;64.67
31331;BME280;34067;39.548;-76.088;2023-01-29T11:09:56;102408.68;;;2.32;64.44
31331;BME280;34067;39.548;-76.088;2023-01-29T11:12:29;102415.84;;;2.20;63.25
31331;BME280;34067;39.548;-76.088;2023-01-29T11:15:02;102407.84;;;2.08;61.99
31331;BME280;34067;39.548;-76.088;2023-01-29T11:17:32;102402.31;;;2.93;60.22
31331;BME280;34067;39.548;-76.088;2023-01-29T11:20:00;102395.54;;;3.02;58.99
31331;BME280;34067;39.548;-76.088;2023-01-29T11:22:29;102388.86;;;2.99;58.86
31331;BME280;34067;39.548;-76.088;2023-01-29T11:25:16;102382.70;;;2.58;60.54
31331;BME280;34067;39.548;-76.088;2023-01-29T11:28:09;102383.22;;;2.79;60.80
31331;BME280;34067;39.548;-76.088;2023-01-29T11:30:39;102382.40;;;2.74;61.44
31331;BME280;34067;39.548;-76.088;2023-01-29T11:33:10;102385.96;;;2.55;61.59
31331;BME280;34067;39.548;-76.088;2023-01-29T11:35:45;102385.82;;;2.19;62.04
31331;BME280;34067;39.548;-76.088;2023-01-29T11:38:22;102388.94;;;3.02;60.77
31331;BME280;34067;39.548;-76.088;2023-01-29T11:40:51;102386.71;;;2.71;61.02
31331;BME280;34067;39.548;-76.088;2023-01-29T11:43:21;102388.74;;;2.32;60.30
31331;BME280;34067;39.548;-76.088;2023-01-29T11:45:57;102398.32;;;2.15;60.65
31331;BME280;34067;39.548;-76.088;2023-01-29T11:48:32;102398.18;;;2.21;60.69
31331;BME280;34067;39.548;-76.088;2023-01-29T11:51:06;102387.99;;;2.84;59.36
31331;BME280;34067;39.548;-76.088;2023-01-29T11:53:38;102386.36;;;2.72;59.24
31331;BME280;34067;39.548;-76.088;2023-01-29T11:56:18;102377.32;;;3.00;58.96
31331;BME280;34067;39.548;-76.088;2023-01-29T11:58:49;102376.89;;;3.08;58.57
31331;BME280;34067;39.548;-76.088;2023-01-29T12:01:28;102374.96;;;3.16;59.37
31331;BME280;34067;39.548;-76.088;2023-01-29T12:03:57;102372.57;;;2.74;60.21
31331;BME280;34067;39.548;-76.088;2023-01-29T12:06:32;102376.23;;;3.02;59.86
31331;BME280;34067;39.548;-76.088;2023-01-29T12:09:06;102381.49;;;2.33;59.67
31331;BME280;34067;39.548;-76.088;2023-01-29T12:11:37;102377.38;;;2.87;60.56
31331;BME280;34067;39.548;-76.088;2023-01-29T12:14:22;102375.76;;;2.98;59.88
31331;BME280;34067;39.548;-76.088;2023-01-29T12:16:55;102373.26;;;2.39;59.25
31331;BME280;34067;39.548;-76.088;2023-01-29T12:19:28;102378.57;;;2.45;59.15
31331;BME280;34067;39.548;-76.088;2023-01-29T12:22:03;102390.56;;;2.99;58.43
31331;BME280;34067;39.548;-76.088;2023-01-29T12:24:35;102390.69;;;2.58;58.77
31331;BME280;34067;39.548;-76.088;2023-01-29T12:27:16;102391.23;;;2.89;58.43
31331;BME280;34067;39.548;-76.088;2023-01-29T12:29:51;102389.64;;;3.19;57.80
31331;BME280;34067;39.548;-76.088;2023-01-29T12:32:28;102393.76;;;2.74;57.83
31331;BME280;34067;39.548;-76.088;2023-01-29T12:35:05;102384.19;;;3.24;57.64
31331;BME280;34067;39.548;-76.088;2023-01-29T12:37:44;102377.03;;;2.87;58.01
31331;BME280;34067;39.548;-76.088;2023-01-29T12:40:17;102368.13;;;3.18;57.08
31331;BME280;34067;39.548;-76.088;2023-01-29T12:42:50;102375.25;;;3.66;56.67
31331;BME280;34067;39.548;-76.088;2023-01-29T12:45:23;102377.44;;;3.85;56.25
31331;BME280;34067;39.548;-76.088;2023-01-29T12:47:56;102375.26;;;4.35;55.13
31331;BME280;34067;39.548;-76.088;2023-01-29T12:50:31;102379.41;;;4.12;55.33
31331;BME280;34067;39.548;-76.088;2023-01-29T12:53:05;102379.57;;;3.95;55.66
31331;BME280;34067;39.548;-76.088;2023-01-29T12:55:38;102373.52;;;4.42;55.29
31331;BME280;34067;39.548;-76.088;2023-01-29T12:58:14;102370.68;;;3.61;56.07
31331;BME280;34067;39.548;-76.088;2023-01-29T13:00:45;102364.17;;;4.01;56.00
31331;BME280;34067;39.548;-76.088;2023-01-29T13:03:20;102368.25;;;3.66;57.22
31331;BME280;34067;39.548;-76.088;2023-01-29T13:05:52;102367.33;;;4.13;57.28
31331;BME280;34067;39.548;-76.088;2023-01-29T13:08:25;102362.40;;;4.33;56.79